sensor_id;sensor_type;location;lat;lon;timestamp;P1;durP1;ratioP1;P2;durP2;ratioP2
37411;SDS011;23278;52.110;6.050;2024-01-07T00:01:27;47.30;;;24.80;;
37411;SDS011;23278;52.110;6.050;2024-01-07T00:03:53;35.85;;;22.15;;
37411;SDS011;23278;52.110;6.050;2024-01-07T00:06:19;45.70;;;24.77;;
37411;SDS011;23278;52.110;6.050;2024-01-07T00:08:45;38.33;;;22.08;;
37411;SDS011;23278;52.110;6.050;2024-01-07T00:11:12;39.88;;;20.75;;
37411;SDS011;23278;52.110;6.050;2024-01-07T00:13:39;36.58;;;22.00;;
37411;SDS011;23278;52.110;6.050;2024-01-07T00:16:05;36.92;;;21.65;;
37411;SDS011;23278;52.110;6.050;2024-01-07T00:18:31;34.72;;;20.45;;
37411;SDS011;23278;52.110;6.050;2024-01-07T00:20:56;33.95;;;19.75;;
37411;SDS011;23278;52.110;6.050;2024-01-07T00:23:22;37.90;;;23.25;;
37411;SDS011;23278;52.110;6.050;2024-01-07T00:25:48;30.50;;;19.30;;
37411;SDS011;23278;52.110;6.050;2024-01-07T00:28:14;37.17;;;21.52;;
37411;SDS011;23278;52.110;6.050;2024-01-07T00:30:40;33.70;;;21.98;;
37411;SDS011;23278;52.110;6.050;2024-01-07T00:33:06;30.02;;;18.52;;
37411;SDS011;23278;52.110;6.050;2024-01-07T00:35:32;31.70;;;20.00;;
37411;SDS011;23278;52.110;6.050;2024-01-07T00:37:58;34.13;;;20.63;;
37411;SDS011;23278;52.110;6.050;2024-01-07T00:40:24;31.55;;;19.98;;
37411;SDS011;23278;52.110;6.050;2024-01-07T00:42:50;27.55;;;17.58;;
37411;SDS011;23278;52.110;6.050;2024-01-07T00:45:16;28.05;;;18.27;;
37411;SDS011;23278;52.110;6.050;2024-01-07T00:47:46;25.77;;;18.45;;
37411;SDS011;23278;52.110;6.050;2024-01-07T00:50:13;24.55;;;16.55;;
37411;SDS011;23278;52.110;6.050;2024-01-07T00:52:38;24.90;;;17.45;;
37411;SDS011;23278;52.110;6.050;2024-01-07T00:55:07;30.55;;;18.45;;
37411;SDS011;23278;52.110;6.050;2024-01-07T00:57:34;30.60;;;20.35;;
37411;SDS011;23278;52.110;6.050;2024-01-07T01:00:00;28.25;;;19.60;;
37411;SDS011;23278;52.110;6.050;2024-01-07T01:02:29;28.17;;;18.93;;
37411;SDS011;23278;52.110;6.050;2024-01-07T01:04:55;28.40;;;19.08;;
37411;SDS011;23278;52.110;6.050;2024-01-07T01:07:21;31.95;;;19.27;;
37411;SDS011;23278;52.110;6.050;2024-01-07T01:09:47;30.50;;;19.15;;
37411;SDS011;23278;52.110;6.050;2024-01-07T01:12:13;36.30;;;23.05;;
37411;SDS011;23278;52.110;6.050;2024-01-07T01:14:39;32.20;;;20.20;;
37411;SDS011;23278;52.110;6.050;2024-01-07T01:17:06;31.95;;;20.60;;
37411;SDS011;23278;52.110;6.050;2024-01-07T01:19:31;37.27;;;22.40;;
37411;SDS011;23278;52.110;6.050;2024-01-07T01:21:57;33.47;;;19.40;;
37411;SDS011;23278;52.110;6.050;2024-01-07T01:24:23;30.52;;;18.73;;
37411;SDS011;23278;52.110;6.050;2024-01-07T01:26:49;33.00;;;20.65;;
37411;SDS011;23278;52.110;6.050;2024-01-07T01:29:15;30.60;;;19.33;;
37411;SDS011;23278;52.110;6.050;2024-01-07T01:31:41;30.50;;;20.25;;
37411;SDS011;23278;52.110;6.050;2024-01-07T01:34:07;28.83;;;20.35;;
37411;SDS011;23278;52.110;6.050;2024-01-07T01:36:32;33.95;;;20.23;;
37411;SDS011;23278;52.110;6.050;2024-01-07T01:38:58;36.50;;;23.17;;
37411;SDS011;23278;52.110;6.050;2024-01-07T01:41:24;38.25;;;22.67;;
37411;SDS011;23278;52.110;6.050;2024-01-07T01:43:50;37.03;;;20.98;;
37411;SDS011;23278;52.110;6.050;2024-01-07T01:46:16;34.58;;;19.80;;
37411;SDS011;23278;52.110;6.050;2024-01-07T01:48:42;39.25;;;21.60;;
37411;SDS011;23278;52.110;6.050;2024-01-07T01:51:08;39.07;;;21.83;;
37411;SDS011;23278;52.110;6.050;2024-01-07T01:53:35;34.60;;;19.70;;
37411;SDS011;23278;52.110;6.050;2024-01-07T01:56:02;35.47;;;20.90;;
37411;SDS011;23278;52.110;6.050;2024-01-07T01:58:28;33.53;;;19.00;;
37411;SDS011;23278;52.110;6.050;2024-01-07T02:00:55;36.10;;;19.97;;
37411;SDS011;23278;52.110;6.050;2024-01-07T02:03:22;28.20;;;17.90;;
37411;SDS011;23278;52.110;6.050;2024-01-07T02:05:48;31.33;;;18.83;;
37411;SDS011;23278;52.110;6.050;2024-01-07T02:08:15;33.25;;;20.52;;
37411;SDS011;23278;52.110;6.050;2024-01-07T02:10:43;34.58;;;20.00;;
37411;SDS011;23278;52.110;6.050;2024-01-07T02:13:10;33.80;;;18.95;;
37411;SDS011;23278;52.110;6.050;2024-01-07T02:15:36;38.63;;;20.92;;
37411;SDS011;23278;52.110;6.050;2024-01-07T02:18:02;35.00;;;20.63;;
37411;SDS011;23278;52.110;6.050;2024-01-07T02:20:29;36.85;;;21.25;;
37411;SDS011;23278;52.110;6.050;2024-01-07T02:22:54;31.27;;;19.05;;
37411;SDS011;23278;52.110;6.050;2024-01-07T02:25:23;33.10;;;19.55;;
37411;SDS011;23278;52.110;6.050;2024-01-07T02:27:49;28.42;;;18.90;;
37411;SDS011;23278;52.110;6.050;2024-01-07T02:30:16;30.75;;;19.58;;
37411;SDS011;23278;52.110;6.050;2024-01-07T02:32:42;25.73;;;16.27;;
37411;SDS011;23278;52.110;6.050;2024-01-07T02:35:08;28.25;;;18.75;;
37411;SDS011;23278;52.110;6.050;2024-01-07T02:37:34;33.60;;;18.42;;
37411;SDS011;23278;52.110;6.050;2024-01-07T02:40:00;29.77;;;17.15;;
37411;SDS011;23278;52.110;6.050;2024-01-07T02:42:26;22.60;;;16.33;;
37411;SDS011;23278;52.110;6.050;2024-01-07T02:44:52;24.02;;;14.57;;
37411;SDS011;23278;52.110;6.050;2024-01-07T02:47:18;26.38;;;17.05;;
37411;SDS011;23278;52.110;6.050;2024-01-07T02:49:44;24.90;;;15.77;;
37411;SDS011;23278;52.110;6.050;2024-01-07T02:52:09;20.50;;;14.27;;
37411;SDS011;23278;52.110;6.050;2024-01-07T02:54:35;22.10;;;14.20;;
37411;SDS011;23278;52.110;6.050;2024-01-07T02:57:01;26.08;;;14.25;;
37411;SDS011;23278;52.110;6.050;2024-01-07T02:59:27;24.10;;;15.77;;
37411;SDS011;23278;52.110;6.050;2024-01-07T03:01:53;21.60;;;14.73;;
37411;SDS011;23278;52.110;6.050;2024-01-07T03:04:19;23.08;;;15.57;;
37411;SDS011;23278;52.110;6.050;2024-01-07T03:06:45;26.58;;;15.98;;
37411;SDS011;23278;52.110;6.050;2024-01-07T03:09:10;27.83;;;18.53;;
37411;SDS011;23278;52.110;6.050;2024-01-07T03:11:40;25.47;;;16.57;;
37411;SDS011;23278;52.110;6.050;2024-01-07T03:16:35;24.52;;;15.77;;
37411;SDS011;23278;52.110;6.050;2024-01-07T03:19:00;23.25;;;15.02;;
37411;SDS011;23278;52.110;6.050;2024-01-07T03:21:27;26.40;;;17.63;;
37411;SDS011;23278;52.110;6.050;2024-01-07T03:23:53;20.13;;;14.43;;
37411;SDS011;23278;52.110;6.050;2024-01-07T03:26:19;20.30;;;14.27;;
37411;SDS011;23278;52.110;6.050;2024-01-07T03:28:45;21.75;;;15.82;;
37411;SDS011;23278;52.110;6.050;2024-01-07T03:31:12;18.70;;;14.27;;
37411;SDS011;23278;52.110;6.050;2024-01-07T03:33:39;22.17;;;15.37;;
37411;SDS011;23278;52.110;6.050;2024-01-07T03:36:10;23.57;;;16.70;;
37411;SDS011;23278;52.110;6.050;2024-01-07T03:38:38;25.73;;;16.13;;
37411;SDS011;23278;52.110;6.050;2024-01-07T03:41:05;21.70;;;14.77;;
37411;SDS011;23278;52.110;6.050;2024-01-07T03:43:31;24.50;;;15.40;;
37411;SDS011;23278;52.110;6.050;2024-01-07T03:45:57;24.00;;;16.98;;
37411;SDS011;23278;52.110;6.050;2024-01-07T03:48:23;23.63;;;16.07;;
37411;SDS011;23278;52.110;6.050;2024-01-07T03:50:49;22.25;;;15.90;;
37411;SDS011;23278;52.110;6.050;2024-01-07T03:53:15;23.73;;;16.15;;
37411;SDS011;23278;52.110;6.050;2024-01-07T03:55:41;23.20;;;17.63;;
37411;SDS011;23278;52.110;6.050;2024-01-07T03:58:07;24.90;;;15.85;;
37411;SDS011;23278;52.110;6.050;2024-01-07T04:00:33;23.70;;;16.42;;
37411;SDS011;23278;52.110;6.050;2024-01-07T04:03:00;24.10;;;16.63;;
37411;SDS011;23278;52.110;6.050;2024-01-07T04:05:26;19.60;;;14.40;;
37411;SDS011;23278;52.110;6.050;2024-01-07T04:07:54;21.73;;;15.43;;
37411;SDS011;23278;52.110;6.050;2024-01-07T04:10:20;20.40;;;14.90;;
37411;SDS011;23278;52.110;6.050;2024-01-07T04:12:46;18.70;;;14.98;;
37411;SDS011;23278;52.110;6.050;2024-01-07T04:15:12;21.47;;;15.77;;
37411;SDS011;23278;52.110;6.050;2024-01-07T04:17:38;20.60;;;15.60;;
37411;SDS011;23278;52.110;6.050;2024-01-07T04:20:05;25.63;;;16.67;;
37411;SDS011;23278;52.110;6.050;2024-01-07T04:22:31;22.53;;;16.00;;
37411;SDS011;23278;52.110;6.050;2024-01-07T04:24:57;20.52;;;15.40;;
37411;SDS011;23278;52.110;6.050;2024-01-07T04:27:23;23.17;;;15.83;;
37411;SDS011;23278;52.110;6.050;2024-01-07T04:29:50;20.58;;;15.13;;
37411;SDS011;23278;52.110;6.050;2024-01-07T04:32:16;19.40;;;14.43;;
37411;SDS011;23278;52.110;6.050;2024-01-07T04:34:42;22.70;;;14.83;;
37411;SDS011;23278;52.110;6.050;2024-01-07T04:37:08;18.70;;;14.07;;
37411;SDS011;23278;52.110;6.050;2024-01-07T04:39:34;22.80;;;16.33;;
37411;SDS011;23278;52.110;6.050;2024-01-07T04:42:00;20.00;;;14.90;;
37411;SDS011;23278;52.110;6.050;2024-01-07T04:44:26;19.30;;;13.63;;
37411;SDS011;23278;52.110;6.050;2024-01-07T04:46:51;20.67;;;13.68;;
37411;SDS011;23278;52.110;6.050;2024-01-07T04:49:17;16.73;;;14.47;;
37411;SDS011;23278;52.110;6.050;2024-01-07T04:51:43;17.05;;;14.30;;
37411;SDS011;23278;52.110;6.050;2024-01-07T04:54:09;20.08;;;14.43;;
37411;SDS011;23278;52.110;6.050;2024-01-07T04:56:35;17.75;;;13.55;;
37411;SDS011;23278;52.110;6.050;2024-01-07T04:59:01;19.20;;;13.23;;
37411;SDS011;23278;52.110;6.050;2024-01-07T05:01:27;16.40;;;13.57;;
37411;SDS011;23278;52.110;6.050;2024-01-07T05:03:53;17.83;;;12.67;;
37411;SDS011;23278;52.110;6.050;2024-01-07T05:06:18;18.60;;;14.13;;
37411;SDS011;23278;52.110;6.050;2024-01-07T05:08:44;17.50;;;12.77;;
37411;SDS011;23278;52.110;6.050;2024-01-07T05:11:10;15.65;;;12.80;;
37411;SDS011;23278;52.110;6.050;2024-01-07T05:13:36;11.45;;;10.00;;
37411;SDS011;23278;52.110;6.050;2024-01-07T05:16:02;18.92;;;13.32;;
37411;SDS011;23278;52.110;6.050;2024-01-07T05:18:28;15.18;;;12.25;;
37411;SDS011;23278;52.110;6.050;2024-01-07T05:20:54;15.73;;;13.13;;
37411;SDS011;23278;52.110;6.050;2024-01-07T05:23:20;16.90;;;12.67;;
37411;SDS011;23278;52.110;6.050;2024-01-07T05:25:46;18.38;;;12.57;;
37411;SDS011;23278;52.110;6.050;2024-01-07T05:28:12;17.13;;;12.70;;
37411;SDS011;23278;52.110;6.050;2024-01-07T05:30:39;14.95;;;10.98;;
37411;SDS011;23278;52.110;6.050;2024-01-07T05:33:05;17.13;;;12.47;;
37411;SDS011;23278;52.110;6.050;2024-01-07T05:35:31;17.00;;;11.93;;
37411;SDS011;23278;52.110;6.050;2024-01-07T05:37:57;14.83;;;12.90;;
37411;SDS011;23278;52.110;6.050;2024-01-07T05:40:23;13.20;;;11.07;;
37411;SDS011;23278;52.110;6.050;2024-01-07T05:42:49;14.95;;;12.20;;
37411;SDS011;23278;52.110;6.050;2024-01-07T05:45:15;14.25;;;10.82;;
37411;SDS011;23278;52.110;6.050;2024-01-07T05:47:41;16.40;;;11.33;;
37411;SDS011;23278;52.110;6.050;2024-01-07T05:50:07;11.93;;;10.07;;
37411;SDS011;23278;52.110;6.050;2024-01-07T05:52:33;15.87;;;10.97;;
37411;SDS011;23278;52.110;6.050;2024-01-07T05:54:59;15.63;;;11.90;;
37411;SDS011;23278;52.110;6.050;2024-01-07T05:57:25;14.03;;;9.90;;
37411;SDS011;23278;52.110;6.050;2024-01-07T05:59:51;13.97;;;10.33;;
37411;SDS011;23278;52.110;6.050;2024-01-07T06:02:17;12.63;;;10.03;;
37411;SDS011;23278;52.110;6.050;2024-01-07T06:04:43;13.53;;;10.60;;
37411;SDS011;23278;52.110;6.050;2024-01-07T06:07:09;14.60;;;10.60;;
37411;SDS011;23278;52.110;6.050;2024-01-07T06:09:35;15.33;;;11.27;;
37411;SDS011;23278;52.110;6.050;2024-01-07T06:12:01;15.93;;;11.53;;
37411;SDS011;23278;52.110;6.050;2024-01-07T06:14:27;13.80;;;10.90;;
37411;SDS011;23278;52.110;6.050;2024-01-07T06:16:53;14.00;;;10.70;;
37411;SDS011;23278;52.110;6.050;2024-01-07T06:19:19;17.40;;;11.52;;
37411;SDS011;23278;52.110;6.050;2024-01-07T06:21:46;14.67;;;11.27;;
37411;SDS011;23278;52.110;6.050;2024-01-07T06:24:12;15.37;;;11.33;;
37411;SDS011;23278;52.110;6.050;2024-01-07T06:26:38;16.43;;;12.23;;
37411;SDS011;23278;52.110;6.050;2024-01-07T06:29:05;19.80;;;12.57;;
37411;SDS011;23278;52.110;6.050;2024-01-07T06:31:31;17.05;;;11.77;;
37411;SDS011;23278;52.110;6.050;2024-01-07T06:33:57;13.18;;;10.43;;
37411;SDS011;23278;52.110;6.050;2024-01-07T06:36:25;14.97;;;11.73;;
37411;SDS011;23278;52.110;6.050;2024-01-07T06:38:51;16.23;;;11.48;;
37411;SDS011;23278;52.110;6.050;2024-01-07T06:41:18;18.60;;;12.02;;
37411;SDS011;23278;52.110;6.050;2024-01-07T06:43:44;14.15;;;10.60;;
37411;SDS011;23278;52.110;6.050;2024-01-07T06:46:10;15.57;;;10.38;;
37411;SDS011;23278;52.110;6.050;2024-01-07T06:48:36;15.45;;;11.40;;
37411;SDS011;23278;52.110;6.050;2024-01-07T06:51:02;14.60;;;10.93;;
37411;SDS011;23278;52.110;6.050;2024-01-07T06:53:28;17.23;;;11.93;;
37411;SDS011;23278;52.110;6.050;2024-01-07T06:55:54;13.90;;;11.13;;
37411;SDS011;23278;52.110;6.050;2024-01-07T06:58:20;13.03;;;10.63;;
37411;SDS011;23278;52.110;6.050;2024-01-07T07:00:46;15.13;;;10.83;;
37411;SDS011;23278;52.110;6.050;2024-01-07T07:03:12;12.02;;;9.75;;
37411;SDS011;23278;52.110;6.050;2024-01-07T07:05:38;12.93;;;10.30;;
37411;SDS011;23278;52.110;6.050;2024-01-07T07:08:04;15.27;;;10.53;;
37411;SDS011;23278;52.110;6.050;2024-01-07T07:10:30;11.77;;;8.73;;
37411;SDS011;23278;52.110;6.050;2024-01-07T07:12:57;10.98;;;9.50;;
37411;SDS011;23278;52.110;6.050;2024-01-07T07:15:22;12.40;;;9.32;;
37411;SDS011;23278;52.110;6.050;2024-01-07T07:17:51;13.67;;;10.07;;
37411;SDS011;23278;52.110;6.050;2024-01-07T07:20:17;11.17;;;8.83;;
37411;SDS011;23278;52.110;6.050;2024-01-07T07:22:43;14.13;;;10.40;;
37411;SDS011;23278;52.110;6.050;2024-01-07T07:25:09;13.80;;;11.37;;
37411;SDS011;23278;52.110;6.050;2024-01-07T07:27:35;12.57;;;10.27;;
37411;SDS011;23278;52.110;6.050;2024-01-07T07:33:06;9.17;;;8.13;;
37411;SDS011;23278;52.110;6.050;2024-01-07T07:35:32;9.50;;;7.88;;
37411;SDS011;23278;52.110;6.050;2024-01-07T07:37:57;10.17;;;7.67;;
37411;SDS011;23278;52.110;6.050;2024-01-07T07:40:23;13.93;;;8.23;;
37411;SDS011;23278;52.110;6.050;2024-01-07T07:42:50;9.37;;;7.73;;
37411;SDS011;23278;52.110;6.050;2024-01-07T07:45:16;12.27;;;8.27;;
37411;SDS011;23278;52.110;6.050;2024-01-07T07:47:44;10.60;;;7.87;;
37411;SDS011;23278;52.110;6.050;2024-01-07T07:50:10;9.98;;;7.72;;
37411;SDS011;23278;52.110;6.050;2024-01-07T07:52:36;12.23;;;7.80;;
37411;SDS011;23278;52.110;6.050;2024-01-07T07:55:02;8.10;;;7.30;;
37411;SDS011;23278;52.110;6.050;2024-01-07T07:57:28;10.47;;;8.87;;
37411;SDS011;23278;52.110;6.050;2024-01-07T07:59:54;10.03;;;8.40;;
37411;SDS011;23278;52.110;6.050;2024-01-07T08:02:20;10.53;;;8.23;;
37411;SDS011;23278;52.110;6.050;2024-01-07T08:04:47;9.67;;;8.00;;
37411;SDS011;23278;52.110;6.050;2024-01-07T08:07:13;9.00;;;7.57;;
37411;SDS011;23278;52.110;6.050;2024-01-07T08:09:39;8.90;;;8.00;;
37411;SDS011;23278;52.110;6.050;2024-01-07T08:12:05;10.13;;;8.23;;
37411;SDS011;23278;52.110;6.050;2024-01-07T08:14:32;11.63;;;7.57;;
37411;SDS011;23278;52.110;6.050;2024-01-07T08:16:58;10.83;;;8.10;;
37411;SDS011;23278;52.110;6.050;2024-01-07T08:19:24;9.23;;;7.77;;
37411;SDS011;23278;52.110;6.050;2024-01-07T08:21:51;7.97;;;7.05;;
37411;SDS011;23278;52.110;6.050;2024-01-07T08:24:19;12.73;;;7.77;;
37411;SDS011;23278;52.110;6.050;2024-01-07T08:26:47;8.83;;;6.40;;
37411;SDS011;23278;52.110;6.050;2024-01-07T08:29:13;7.90;;;7.03;;
37411;SDS011;23278;52.110;6.050;2024-01-07T08:31:39;10.03;;;8.10;;
37411;SDS011;23278;52.110;6.050;2024-01-07T08:34:07;9.37;;;7.87;;
37411;SDS011;23278;52.110;6.050;2024-01-07T08:36:33;10.90;;;8.73;;
37411;SDS011;23278;52.110;6.050;2024-01-07T08:38:59;10.07;;;8.27;;
37411;SDS011;23278;52.110;6.050;2024-01-07T08:41:28;10.23;;;8.33;;
37411;SDS011;23278;52.110;6.050;2024-01-07T08:43:54;9.43;;;8.03;;
37411;SDS011;23278;52.110;6.050;2024-01-07T08:46:20;11.67;;;8.97;;
37411;SDS011;23278;52.110;6.050;2024-01-07T08:48:46;9.73;;;7.93;;
37411;SDS011;23278;52.110;6.050;2024-01-07T08:51:12;11.17;;;8.07;;
37411;SDS011;23278;52.110;6.050;2024-01-07T08:53:39;8.67;;;7.03;;
37411;SDS011;23278;52.110;6.050;2024-01-07T08:56:05;9.47;;;7.77;;
37411;SDS011;23278;52.110;6.050;2024-01-07T08:58:34;12.20;;;7.90;;
37411;SDS011;23278;52.110;6.050;2024-01-07T09:01:00;8.67;;;6.73;;
37411;SDS011;23278;52.110;6.050;2024-01-07T09:03:26;8.60;;;7.07;;
37411;SDS011;23278;52.110;6.050;2024-01-07T09:05:51;10.27;;;6.30;;
37411;SDS011;23278;52.110;6.050;2024-01-07T09:08:17;9.57;;;6.37;;
37411;SDS011;23278;52.110;6.050;2024-01-07T09:10:44;9.97;;;6.80;;
37411;SDS011;23278;52.110;6.050;2024-01-07T09:13:10;11.43;;;6.73;;
37411;SDS011;23278;52.110;6.050;2024-01-07T09:15:36;11.33;;;6.97;;
37411;SDS011;23278;52.110;6.050;2024-01-07T09:18:02;10.00;;;5.70;;
37411;SDS011;23278;52.110;6.050;2024-01-07T09:20:28;8.38;;;6.15;;
37411;SDS011;23278;52.110;6.050;2024-01-07T09:22:54;9.90;;;5.30;;
37411;SDS011;23278;52.110;6.050;2024-01-07T09:25:20;6.73;;;4.73;;
37411;SDS011;23278;52.110;6.050;2024-01-07T09:27:45;8.55;;;5.15;;
37411;SDS011;23278;52.110;6.050;2024-01-07T09:30:11;7.72;;;5.28;;
37411;SDS011;23278;52.110;6.050;2024-01-07T09:32:40;8.80;;;5.90;;
37411;SDS011;23278;52.110;6.050;2024-01-07T09:35:07;7.73;;;5.63;;
37411;SDS011;23278;52.110;6.050;2024-01-07T09:37:33;6.33;;;5.27;;
37411;SDS011;23278;52.110;6.050;2024-01-07T09:40:00;6.93;;;4.53;;
37411;SDS011;23278;52.110;6.050;2024-01-07T09:42:26;8.03;;;4.93;;
37411;SDS011;23278;52.110;6.050;2024-01-07T09:44:52;7.47;;;4.83;;
37411;SDS011;23278;52.110;6.050;2024-01-07T09:47:18;7.53;;;5.50;;
37411;SDS011;23278;52.110;6.050;2024-01-07T09:49:45;7.03;;;4.43;;
37411;SDS011;23278;52.110;6.050;2024-01-07T09:52:12;6.07;;;4.28;;
37411;SDS011;23278;52.110;6.050;2024-01-07T09:54:38;5.63;;;4.20;;
37411;SDS011;23278;52.110;6.050;2024-01-07T09:57:05;4.27;;;3.70;;
37411;SDS011;23278;52.110;6.050;2024-01-07T09:59:33;6.43;;;4.32;;
37411;SDS011;23278;52.110;6.050;2024-01-07T10:02:02;5.10;;;3.72;;
37411;SDS011;23278;52.110;6.050;2024-01-07T10:04:28;3.97;;;3.17;;
37411;SDS011;23278;52.110;6.050;2024-01-07T10:06:55;6.30;;;4.27;;
37411;SDS011;23278;52.110;6.050;2024-01-07T10:09:22;4.33;;;2.97;;
37411;SDS011;23278;52.110;6.050;2024-01-07T10:11:52;5.13;;;3.60;;
37411;SDS011;23278;52.110;6.050;2024-01-07T10:14:18;6.53;;;3.83;;
37411;SDS011;23278;52.110;6.050;2024-01-07T10:16:50;5.30;;;2.90;;
37411;SDS011;23278;52.110;6.050;2024-01-07T10:19:22;3.90;;;2.13;;
37411;SDS011;23278;52.110;6.050;2024-01-07T10:21:58;6.90;;;3.10;;
37411;SDS011;23278;52.110;6.050;2024-01-07T10:24:35;4.63;;;3.07;;
37411;SDS011;23278;52.110;6.050;2024-01-07T10:27:05;4.15;;;3.17;;
37411;SDS011;23278;52.110;6.050;2024-01-07T10:29:32;3.83;;;2.27;;
37411;SDS011;23278;52.110;6.050;2024-01-07T10:31:58;6.28;;;3.22;;
37411;SDS011;23278;52.110;6.050;2024-01-07T10:34:28;4.05;;;2.25;;
37411;SDS011;23278;52.110;6.050;2024-01-07T10:36:56;5.40;;;3.90;;
37411;SDS011;23278;52.110;6.050;2024-01-07T10:39:25;3.47;;;2.30;;
37411;SDS011;23278;52.110;6.050;2024-01-07T10:41:51;3.97;;;2.57;;
37411;SDS011;23278;52.110;6.050;2024-01-07T10:44:32;4.10;;;3.00;;
37411;SDS011;23278;52.110;6.050;2024-01-07T10:46:58;4.83;;;2.30;;
37411;SDS011;23278;52.110;6.050;2024-01-07T10:49:28;4.45;;;3.33;;
37411;SDS011;23278;52.110;6.050;2024-01-07T10:51:59;4.93;;;2.45;;
37411;SDS011;23278;52.110;6.050;2024-01-07T10:54:28;4.47;;;2.17;;
37411;SDS011;23278;52.110;6.050;2024-01-07T10:56:57;4.55;;;2.63;;
37411;SDS011;23278;52.110;6.050;2024-01-07T10:59:25;5.60;;;2.55;;
37411;SDS011;23278;52.110;6.050;2024-01-07T11:01:53;3.20;;;1.80;;
37411;SDS011;23278;52.110;6.050;2024-01-07T11:04:26;4.78;;;2.08;;
37411;SDS011;23278;52.110;6.050;2024-01-07T11:07:03;2.72;;;1.58;;
37411;SDS011;23278;52.110;6.050;2024-01-07T11:09:43;2.78;;;1.58;;
37411;SDS011;23278;52.110;6.050;2024-01-07T11:12:25;3.13;;;2.08;;
37411;SDS011;23278;52.110;6.050;2024-01-07T11:14:51;2.60;;;1.20;;
37411;SDS011;23278;52.110;6.050;2024-01-07T11:20:06;3.80;;;1.40;;
37411;SDS011;23278;52.110;6.050;2024-01-07T11:22:37;1.35;;;0.88;;
37411;SDS011;23278;52.110;6.050;2024-01-07T11:25:27;1.60;;;1.10;;
37411;SDS011;23278;52.110;6.050;2024-01-07T11:27:58;1.67;;;0.77;;
37411;SDS011;23278;52.110;6.050;2024-01-07T11:30:26;1.55;;;0.90;;
37411;SDS011;23278;52.110;6.050;2024-01-07T11:32:56;1.77;;;1.15;;
37411;SDS011;23278;52.110;6.050;2024-01-07T11:38:26;1.05;;;0.77;;
37411;SDS011;23278;52.110;6.050;2024-01-07T11:40:52;1.80;;;1.08;;
37411;SDS011;23278;52.110;6.050;2024-01-07T11:43:20;3.00;;;1.00;;
37411;SDS011;23278;52.110;6.050;2024-01-07T11:45:49;2.13;;;0.80;;
37411;SDS011;23278;52.110;6.050;2024-01-07T11:48:16;2.33;;;0.65;;
37411;SDS011;23278;52.110;6.050;2024-01-07T11:50:43;1.92;;;1.00;;
37411;SDS011;23278;52.110;6.050;2024-01-07T11:53:12;2.30;;;0.80;;
37411;SDS011;23278;52.110;6.050;2024-01-07T11:55:39;4.40;;;0.98;;
37411;SDS011;23278;52.110;6.050;2024-01-07T11:58:05;2.60;;;1.00;;
37411;SDS011;23278;52.110;6.050;2024-01-07T12:00:31;2.28;;;1.33;;
37411;SDS011;23278;52.110;6.050;2024-01-07T12:03:01;4.15;;;0.98;;
37411;SDS011;23278;52.110;6.050;2024-01-07T12:05:28;2.83;;;1.40;;
37411;SDS011;23278;52.110;6.050;2024-01-07T12:07:55;1.20;;;0.90;;
37411;SDS011;23278;52.110;6.050;2024-01-07T12:10:24;4.60;;;2.08;;
37411;SDS011;23278;52.110;6.050;2024-01-07T12:12:50;2.13;;;1.50;;
37411;SDS011;23278;52.110;6.050;2024-01-07T12:15:18;2.75;;;1.20;;
37411;SDS011;23278;52.110;6.050;2024-01-07T12:18:00;3.30;;;1.35;;
37411;SDS011;23278;52.110;6.050;2024-01-07T12:20:27;1.75;;;1.13;;
37411;SDS011;23278;52.110;6.050;2024-01-07T12:22:56;1.70;;;1.23;;
37411;SDS011;23278;52.110;6.050;2024-01-07T12:25:24;6.53;;;2.22;;
37411;SDS011;23278;52.110;6.050;2024-01-07T12:27:50;3.15;;;1.50;;
37411;SDS011;23278;52.110;6.050;2024-01-07T12:30:20;2.67;;;1.55;;
37411;SDS011;23278;52.110;6.050;2024-01-07T12:32:51;2.22;;;2.03;;
37411;SDS011;23278;52.110;6.050;2024-01-07T12:35:17;5.13;;;1.20;;
37411;SDS011;23278;52.110;6.050;2024-01-07T12:37:43;2.40;;;1.20;;
37411;SDS011;23278;52.110;6.050;2024-01-07T12:40:10;1.70;;;0.90;;
37411;SDS011;23278;52.110;6.050;2024-01-07T12:42:39;1.98;;;0.90;;
37411;SDS011;23278;52.110;6.050;2024-01-07T12:45:10;1.10;;;0.82;;
37411;SDS011;23278;52.110;6.050;2024-01-07T12:47:42;4.22;;;0.82;;
37411;SDS011;23278;52.110;6.050;2024-01-07T12:50:09;1.45;;;0.98;;
37411;SDS011;23278;52.110;6.050;2024-01-07T12:52:39;2.22;;;0.90;;
37411;SDS011;23278;52.110;6.050;2024-01-07T12:55:05;2.20;;;1.00;;
37411;SDS011;23278;52.110;6.050;2024-01-07T12:57:32;1.60;;;0.93;;
37411;SDS011;23278;52.110;6.050;2024-01-07T12:59:58;1.15;;;0.70;;
37411;SDS011;23278;52.110;6.050;2024-01-07T13:02:25;1.05;;;0.80;;
37411;SDS011;23278;52.110;6.050;2024-01-07T13:04:52;1.83;;;0.75;;
37411;SDS011;23278;52.110;6.050;2024-01-07T13:07:21;2.08;;;0.68;;
37411;SDS011;23278;52.110;6.050;2024-01-07T13:09:48;2.53;;;0.93;;
37411;SDS011;23278;52.110;6.050;2024-01-07T13:12:14;2.45;;;0.60;;
37411;SDS011;23278;52.110;6.050;2024-01-07T13:14:40;3.47;;;1.00;;
37411;SDS011;23278;52.110;6.050;2024-01-07T13:17:08;1.00;;;0.70;;
37411;SDS011;23278;52.110;6.050;2024-01-07T13:19:34;1.02;;;0.60;;
37411;SDS011;23278;52.110;6.050;2024-01-07T13:22:02;1.70;;;0.95;;
37411;SDS011;23278;52.110;6.050;2024-01-07T13:24:28;1.05;;;0.80;;
37411;SDS011;23278;52.110;6.050;2024-01-07T13:26:55;1.80;;;0.90;;
37411;SDS011;23278;52.110;6.050;2024-01-07T13:29:21;1.25;;;0.80;;
37411;SDS011;23278;52.110;6.050;2024-01-07T13:31:47;2.13;;;0.68;;
37411;SDS011;23278;52.110;6.050;2024-01-07T13:34:13;1.27;;;1.08;;
37411;SDS011;23278;52.110;6.050;2024-01-07T13:36:39;2.38;;;1.05;;
37411;SDS011;23278;52.110;6.050;2024-01-07T13:39:06;1.15;;;0.70;;
37411;SDS011;23278;52.110;6.050;2024-01-07T13:41:33;2.53;;;1.00;;
37411;SDS011;23278;52.110;6.050;2024-01-07T13:44:00;1.83;;;0.75;;
37411;SDS011;23278;52.110;6.050;2024-01-07T13:46:28;2.20;;;0.70;;
37411;SDS011;23278;52.110;6.050;2024-01-07T13:48:54;2.08;;;1.02;;
37411;SDS011;23278;52.110;6.050;2024-01-07T13:51:22;1.08;;;0.70;;
37411;SDS011;23278;52.110;6.050;2024-01-07T13:53:51;1.80;;;1.10;;
37411;SDS011;23278;52.110;6.050;2024-01-07T13:56:17;3.97;;;1.30;;
37411;SDS011;23278;52.110;6.050;2024-01-07T13:58:44;1.08;;;0.80;;
37411;SDS011;23278;52.110;6.050;2024-01-07T14:01:12;2.10;;;1.10;;
37411;SDS011;23278;52.110;6.050;2024-01-07T14:03:39;2.47;;;1.13;;
37411;SDS011;23278;52.110;6.050;2024-01-07T14:06:05;2.13;;;0.90;;
37411;SDS011;23278;52.110;6.050;2024-01-07T14:08:31;2.13;;;0.82;;
37411;SDS011;23278;52.110;6.050;2024-01-07T14:10:58;1.80;;;0.98;;
37411;SDS011;23278;52.110;6.050;2024-01-07T14:13:24;2.05;;;0.80;;
37411;SDS011;23278;52.110;6.050;2024-01-07T14:15:50;1.42;;;0.70;;
37411;SDS011;23278;52.110;6.050;2024-01-07T14:18:16;2.33;;;0.95;;
37411;SDS011;23278;52.110;6.050;2024-01-07T14:20:45;1.63;;;1.15;;
37411;SDS011;23278;52.110;6.050;2024-01-07T14:23:11;1.30;;;0.73;;
37411;SDS011;23278;52.110;6.050;2024-01-07T14:25:37;2.20;;;1.08;;
37411;SDS011;23278;52.110;6.050;2024-01-07T14:28:03;1.08;;;0.57;;
37411;SDS011;23278;52.110;6.050;2024-01-07T14:30:29;2.65;;;1.25;;
37411;SDS011;23278;52.110;6.050;2024-01-07T14:32:55;1.30;;;0.80;;
37411;SDS011;23278;52.110;6.050;2024-01-07T14:35:22;1.63;;;0.88;;
37411;SDS011;23278;52.110;6.050;2024-01-07T14:37:49;2.13;;;1.40;;
37411;SDS011;23278;52.110;6.050;2024-01-07T14:40:15;1.85;;;1.33;;
37411;SDS011;23278;52.110;6.050;2024-01-07T14:42:41;3.92;;;1.50;;